Time;durP1;ratioP1;P1;durP2;ratioP2;P2;SDS_P1;SDS_P2;PMS_P1;PMS_P2;Temp;Humidity;BMP_temperature;BMP_pressure;BME280_temperature;BME280_humidity;BME280_pressure;Samples;Min_cycle;Max_cycle;Signal;HPM_P1;HPM_P2
2023/01/16 00:01:21;;;;;;;8.07;5.60;;;5.00;99.90;;;;;;4997536;28;20268;-63
2023/01/16 00:03:47;;;;;;;7.43;5.50;;;5.00;99.90;;;;;;4996932;28;20192;-64
2023/01/16 00:06:13;;;;;;;8.10;5.43;;;5.00;99.90;;;;;;4997493;28;20582;-64
2023/01/16 00:08:39;;;;;;;5.77;5.07;;;5.00;99.90;;;;;;4996776;28;20679;-64
2023/01/16 00:11:04;;;;;;;9.57;5.43;;;5.00;99.90;;;;;;4996976;28;20196;-64
2023/01/16 00:13:30;;;;;;;11.33;5.20;;;5.00;99.90;;;;;;4996666;28;20271;-64
2023/01/16 00:15:56;;;;;;;7.50;5.07;;;5.00;99.90;;;;;;4996563;28;20296;-65
2023/01/16 00:18:22;;;;;;;9.93;4.70;;;4.90;99.90;;;;;;4996523;28;20180;-64
2023/01/16 00:20:48;;;;;;;5.20;4.70;;;4.80;99.90;;;;;;4996545;28;20200;-64
2023/01/16 00:23:14;;;;;;;7.13;5.43;;;4.80;99.90;;;;;;4996258;28;20196;-64
2023/01/16 00:25:41;;;;;;;9.10;4.83;;;4.80;99.90;;;;;;4996423;28;20177;-64
2023/01/16 00:28:11;;;;;;;8.33;5.03;;;4.70;99.90;;;;;;4996381;28;20176;-64
2023/01/16 00:30:37;;;;;;;5.27;4.63;;;4.70;99.90;;;;;;5011546;28;20200;-63
2023/01/16 00:33:04;;;;;;;4.83;4.50;;;4.60;99.90;;;;;;5011451;28;20254;-64
2023/01/16 00:35:30;;;;;;;6.30;5.00;;;4.60;99.90;;;;;;5011924;28;20181;-63
2023/01/16 00:37:56;;;;;;;5.00;4.50;;;4.60;99.90;;;;;;4996812;28;20204;-64
2023/01/16 00:40:23;;;;;;;5.40;4.90;;;4.50;99.90;;;;;;4995746;28;20653;-64
2023/01/16 00:42:49;;;;;;;5.87;4.80;;;4.50;99.90;;;;;;4996861;28;20227;-64
2023/01/16 00:45:14;;;;;;;5.13;4.50;;;4.50;99.90;;;;;;4996880;28;20630;-64
2023/01/16 00:47:41;;;;;;;7.67;4.60;;;4.50;99.90;;;;;;4996181;28;20180;-68
2023/01/16 00:50:07;;;;;;;5.97;4.90;;;4.50;99.90;;;;;;4996480;28;20191;-64
2023/01/16 00:52:33;;;;;;;6.53;4.23;;;4.50;99.90;;;;;;4995850;28;20274;-65
2023/01/16 00:54:59;;;;;;;6.77;4.40;;;4.50;99.90;;;;;;4994867;28;20275;-65
2023/01/16 00:57:25;;;;;;;4.60;4.30;;;4.50;99.90;;;;;;4995911;28;20177;-65
2023/01/16 00:59:51;;;;;;;5.00;4.60;;;4.50;99.90;;;;;;4995887;28;20254;-65
2023/01/16 01:02:16;;;;;;;4.63;4.20;;;4.40;99.90;;;;;;4994447;28;20200;-65
2023/01/16 01:04:42;;;;;;;5.53;4.80;;;4.40;99.90;;;;;;4994463;28;20661;-65
2023/01/16 01:07:08;;;;;;;4.70;4.30;;;4.40;99.90;;;;;;4994353;28;20227;-65
2023/01/16 01:09:34;;;;;;;4.50;4.10;;;4.40;99.90;;;;;;4994268;28;20666;-65
2023/01/16 01:12:00;;;;;;;5.80;4.70;;;4.30;99.90;;;;;;4995484;28;20246;-65
2023/01/16 01:14:26;;;;;;;5.10;4.60;;;4.30;99.90;;;;;;4995654;28;20621;-64
2023/01/16 01:16:52;;;;;;;6.00;4.90;;;4.30;99.90;;;;;;4995363;28;20184;-65
2023/01/16 01:19:17;;;;;;;5.30;4.83;;;4.20;99.90;;;;;;4994094;28;20719;-65
2023/01/16 01:21:43;;;;;;;4.80;4.40;;;4.20;99.90;;;;;;4995160;28;20196;-65
2023/01/16 01:24:09;;;;;;;4.80;4.30;;;4.10;99.90;;;;;;4995318;28;20244;-65
2023/01/16 01:26:35;;;;;;;4.53;4.20;;;4.00;99.90;;;;;;4995253;28;20181;-65
2023/01/16 01:29:01;;;;;;;4.47;4.17;;;3.90;99.90;;;;;;5010251;28;20588;-65
2023/01/16 01:31:27;;;;;;;4.70;4.40;;;3.90;99.90;;;;;;4994003;28;20235;-65
2023/01/16 01:33:53;;;;;;;4.70;4.50;;;3.80;99.90;;;;;;4995086;28;20196;-65
2023/01/16 01:36:19;;;;;;;4.60;4.40;;;3.70;99.90;;;;;;4995126;28;20165;-65
2023/01/16 01:38:46;;;;;;;4.40;4.20;;;3.70;99.90;;;;;;5009982;28;20260;-65
2023/01/16 01:41:15;;;;;;;4.90;4.50;;;3.60;99.90;;;;;;4995002;28;20597;-65
2023/01/16 01:43:46;;;;;;;5.03;4.63;;;3.60;99.90;;;;;;4994900;28;20215;-65
2023/01/16 01:46:33;;;;;;;4.93;4.40;;;3.60;99.90;;;;;;5009993;28;20560;-65
2023/01/16 01:49:23;;;;;;;7.23;4.77;;;3.60;99.90;;;;;;4995214;28;20161;-65
2023/01/16 01:51:51;;;;;;;4.93;4.50;;;3.60;99.90;;;;;;5009776;28;20173;-65
2023/01/16 01:54:24;;;;;;;4.50;4.20;;;3.50;99.90;;;;;;4994722;28;20196;-65
2023/01/16 01:56:56;;;;;;;7.00;4.90;;;3.50;99.90;;;;;;4995100;28;20188;-65
2023/01/16 01:59:28;;;;;;;5.20;4.70;;;3.50;99.90;;;;;;4993311;28;20228;-65
2023/01/16 02:01:55;;;;;;;5.07;4.67;;;3.50;99.90;;;;;;4994786;28;20172;-65
2023/01/16 02:04:27;;;;;;;5.80;5.07;;;3.50;99.90;;;;;;4994553;28;20585;-65
2023/01/16 02:07:08;;;;;;;5.13;4.70;;;3.50;99.90;;;;;;4994280;28;20547;-64
2023/01/16 02:09:34;;;;;;;5.80;4.83;;;3.60;99.90;;;;;;5009564;28;20229;-65
2023/01/16 02:12:12;;;;;;;5.30;4.87;;;3.60;99.90;;;;;;4994335;28;20195;-65
2023/01/16 02:14:41;;;;;;;5.37;4.87;;;3.60;99.90;;;;;;4994530;28;20668;-65
2023/01/16 02:20:05;;;;;;;6.50;5.00;;;3.70;99.90;;;;;;4994742;28;20283;-65
2023/01/16 02:22:43;;;;;;;5.60;5.03;;;3.80;99.90;;;;;;4994110;28;20199;-65
2023/01/16 02:25:30;;;;;;;5.27;4.70;;;3.80;99.90;;;;;;4994298;28;20176;-65
2023/01/16 02:28:44;;;;;;;5.60;5.00;;;3.80;99.90;;;;;;4994621;28;20167;-65
2023/01/16 02:31:45;;;;;;;5.63;4.60;;;3.90;99.90;;;;;;4980534;28;20192;-65
2023/01/16 02:34:40;;;;;;;5.50;5.00;;;3.90;99.90;;;;;;4988509;28;20569;-65
2023/01/16 02:37:33;;;;;;;4.93;4.63;;;3.90;99.90;;;;;;4994048;28;20165;-65
2023/01/16 02:40:35;;;;;;;5.33;4.83;;;3.90;99.90;;;;;;4994084;28;20200;-65
2023/01/16 02:43:19;;;;;;;4.87;4.50;;;3.90;99.90;;;;;;4993970;28;20702;-65
2023/01/16 02:45:51;;;;;;;9.17;4.60;;;4.00;99.90;;;;;;4993933;28;20176;-65
2023/01/16 02:48:20;;;;;;;5.30;4.90;;;3.90;99.90;;;;;;4993988;28;20592;-65
2023/01/16 02:51:12;;;;;;;5.47;4.97;;;3.90;99.90;;;;;;4994494;28;20235;-65
2023/01/16 02:54:10;;;;;;;5.43;4.50;;;3.90;99.90;;;;;;4985703;28;20227;-65
2023/01/16 02:56:45;;;;;;;5.33;4.93;;;3.90;99.90;;;;;;4994302;28;20524;-65
2023/01/16 02:59:14;;;;;;;5.40;4.90;;;3.90;99.90;;;;;;4992656;28;20286;-65
2023/01/16 03:01:40;;;;;;;4.90;4.50;;;4.00;99.90;;;;;;4993971;28;20728;-65
2023/01/16 03:04:41;;;;;;;4.47;4.17;;;4.00;99.90;;;;;;5008929;28;20214;-65
2023/01/16 03:07:22;;;;;;;5.20;4.90;;;4.00;99.90;;;;;;4989430;28;20189;-65
2023/01/16 03:10:25;;;;;;;5.37;4.87;;;3.90;99.90;;;;;;4993945;28;20164;-66
2023/01/16 03:13:27;;;;;;;4.57;4.27;;;3.90;99.90;;;;;;4993765;28;20200;-65
2023/01/16 03:16:21;;;;;;;5.30;5.00;;;4.00;99.90;;;;;;4992588;28;20191;-65
2023/01/16 03:18:52;;;;;;;4.90;4.47;;;4.00;99.90;;;;;;4995888;28;20185;-65
2023/01/16 03:21:21;;;;;;;6.60;4.80;;;4.00;99.90;;;;;;4996399;28;20181;-66
2023/01/16 03:23:57;;;;;;;4.80;4.50;;;4.00;99.90;;;;;;4997368;28;20199;-65
2023/01/16 03:26:38;;;;;;;4.90;4.40;;;4.10;99.90;;;;;;4997503;28;20545;-65
2023/01/16 03:29:22;;;;;;;5.60;5.10;;;4.10;99.90;;;;;;4997790;28;20589;-65
2023/01/16 03:31:54;;;;;;;4.60;4.17;;;4.10;99.90;;;;;;4997651;28;20165;-65
2023/01/16 03:34:29;;;;;;;4.70;4.30;;;4.10;99.90;;;;;;4997651;28;20165;-65
2023/01/16 03:37:16;;;;;;;4.90;4.63;;;4.10;99.90;;;;;;4997257;28;20215;-65
2023/01/16 03:39:46;;;;;;;4.90;4.40;;;4.10;99.90;;;;;;4997743;28;20188;-65
2023/01/16 03:42:44;;;;;;;4.47;4.20;;;4.10;99.90;;;;;;4997375;28;20195;-65
2023/01/16 03:45:21;;;;;;;5.20;4.73;;;4.10;99.90;;;;;;4996629;28;20205;-65
2023/01/16 03:47:55;;;;;;;5.27;4.63;;;4.10;99.90;;;;;;4997730;28;20211;-65
2023/01/16 03:50:23;;;;;;;4.80;4.50;;;4.10;99.90;;;;;;4997715;28;20165;-65
2023/01/16 03:52:54;;;;;;;4.63;4.30;;;4.10;99.90;;;;;;4997058;28;20672;-66
2023/01/16 03:55:43;;;;;;;6.17;4.90;;;4.00;99.90;;;;;;4997541;28;20567;-65
2023/01/16 03:58:17;;;;;;;5.00;4.60;;;4.00;99.90;;;;;;4996983;28;20173;-65
2023/01/16 04:00:54;;;;;;;4.20;4.00;;;4.00;99.90;;;;;;4997217;28;20192;-65
2023/01/16 04:03:37;;;;;;;4.40;4.20;;;4.00;99.90;;;;;;4996914;28;20192;-65
2023/01/16 04:06:10;;;;;;;4.83;4.43;;;4.00;99.90;;;;;;4997191;28;20167;-65
2023/01/16 04:08:40;;;;;;;5.13;4.73;;;4.00;99.90;;;;;;4996813;28;20161;-65
2023/01/16 04:11:07;;;;;;;4.90;4.40;;;3.90;99.90;;;;;;4997320;28;20196;-65
2023/01/16 04:13:36;;;;;;;4.90;4.60;;;4.00;99.90;;;;;;4995295;28;20211;-65
2023/01/16 04:16:07;;;;;;;5.23;4.83;;;3.90;99.90;;;;;;4997060;28;20285;-65
2023/01/16 04:18:34;;;;;;;4.43;4.13;;;3.90;99.90;;;;;;4996965;28;20167;-65
2023/01/16 04:21:02;;;;;;;4.80;4.50;;;4.00;99.90;;;;;;4996998;28;20192;-66
2023/01/16 04:23:28;;;;;;;4.93;4.50;;;3.90;99.90;;;;;;5011449;28;20569;-66
2023/01/16 04:25:54;;;;;;;5.00;4.70;;;4.00;99.90;;;;;;4997156;28;20179;-66
2023/01/16 04:28:20;;;;;;;5.13;4.73;;;3.90;99.90;;;;;;4995125;28;20280;-66
2023/01/16 04:30:45;;;;;;;6.57;5.00;;;3.90;99.90;;;;;;4996071;28;20653;-67
2023/01/16 04:33:11;;;;;;;4.87;4.47;;;3.90;99.90;;;;;;4996884;28;20231;-66
2023/01/16 04:35:37;;;;;;;4.90;4.60;;;3.90;99.90;;;;;;4996237;28;20519;-66
2023/01/16 04:38:03;;;;;;;4.70;4.50;;;3.90;99.90;;;;;;4994924;28;20188;-66
2023/01/16 04:40:28;;;;;;;4.93;4.60;;;3.90;99.90;;;;;;4996065;28;20208;-66
2023/01/16 04:42:57;;;;;;;4.70;4.40;;;4.00;99.90;;;;;;4996087;28;20291;-66
2023/01/16 04:45:23;;;;;;;5.33;4.83;;;3.90;99.90;;;;;;4996040;28;20181;-66
2023/01/16 04:47:50;;;;;;;4.80;4.40;;;3.90;99.90;;;;;;4996083;28;20161;-66
2023/01/16 04:50:17;;;;;;;5.33;4.83;;;3.90;99.90;;;;;;4996086;28;20680;-66
2023/01/16 04:52:43;;;;;;;5.87;4.70;;;4.00;99.90;;;;;;4994409;28;20235;-66
2023/01/16 04:55:10;;;;;;;5.00;4.60;;;3.90;99.90;;;;;;4996318;28;20518;-66
2023/01/16 04:57:36;;;;;;;4.70;4.50;;;3.90;99.90;;;;;;5010971;28;20271;-66
2023/01/16 05:00:04;;;;;;;4.90;4.40;;;3.90;99.90;;;;;;4995770;28;20283;-66
2023/01/16 05:02:30;;;;;;;5.90;4.70;;;3.90;99.90;;;;;;4995798;28;20193;-66
2023/01/16 05:04:55;;;;;;;5.50;5.10;;;3.90;99.90;;;;;;4994470;28;20177;-66
2023/01/16 05:07:21;;;;;;;5.20;4.70;;;3.90;99.90;;;;;;4996066;28;20179;-66
2023/01/16 05:09:47;;;;;;;5.13;4.70;;;3.90;99.90;;;;;;4996090;28;20180;-67
2023/01/16 05:12:12;;;;;;;5.17;4.77;;;3.90;99.90;;;;;;4995566;28;20673;-66
2023/01/16 05:14:38;;;;;;;5.07;4.57;;;4.00;99.90;;;;;;4995738;28;20642;-66
2023/01/16 05:17:04;;;;;;;8.87;5.63;;;4.00;99.90;;;;;;4994297;28;20204;-67
2023/01/16 05:19:30;;;;;;;7.97;4.90;;;4.00;99.90;;;;;;4995666;28;20561;-65
2023/01/16 05:21:55;;;;;;;7.50;4.97;;;4.00;99.90;;;;;;4995250;28;20172;-66
2023/01/16 05:24:21;;;;;;;5.00;4.50;;;4.00;99.90;;;;;;4995275;28;20172;-64
2023/01/16 05:26:47;;;;;;;5.23;4.80;;;4.00;99.90;;;;;;4995465;28;20577;-65
2023/01/16 05:29:12;;;;;;;5.73;5.23;;;4.00;99.90;;;;;;4994008;28;20187;-64
2023/01/16 05:31:38;;;;;;;4.93;4.53;;;4.00;99.90;;;;;;4995737;28;20176;-64
2023/01/16 05:34:04;;;;;;;5.43;4.80;;;4.00;99.90;;;;;;4995118;28;20203;-64
2023/01/16 05:36:29;;;;;;;8.87;5.23;;;4.00;99.90;;;;;;4995060;28;20673;-64
2023/01/16 05:38:55;;;;;;;4.80;4.50;;;4.00;99.90;;;;;;4994941;28;20172;-64
2023/01/16 05:41:21;;;;;;;4.93;4.53;;;4.00;99.90;;;;;;4994296;28;20179;-64
2023/01/16 05:43:46;;;;;;;4.90;4.50;;;4.00;99.90;;;;;;4994765;28;20342;-64
2023/01/16 05:46:12;;;;;;;5.00;4.70;;;4.00;99.90;;;;;;4993596;28;20527;-65
2023/01/16 05:48:39;;;;;;;4.90;4.53;;;4.00;99.90;;;;;;4995022;28;20208;-65
2023/01/16 05:51:05;;;;;;;4.90;4.50;;;3.90;99.90;;;;;;4994777;28;20199;-65
2023/01/16 05:53:31;;;;;;;7.20;5.40;;;4.00;99.90;;;;;;4994581;28;20671;-64
2023/01/16 05:55:58;;;;;;;5.53;4.60;;;4.00;99.90;;;;;;4994543;28;20172;-64
2023/01/16 05:58:24;;;;;;;5.00;4.60;;;4.00;99.90;;;;;;4994397;28;20212;-64
2023/01/16 06:00:50;;;;;;;4.83;4.53;;;4.00;99.90;;;;;;4994357;28;20676;-64
2023/01/16 06:03:15;;;;;;;5.47;4.97;;;4.00;99.90;;;;;;4993189;28;20292;-64
2023/01/16 06:05:42;;;;;;;5.80;4.60;;;4.00;99.90;;;;;;4993075;28;20203;-64
2023/01/16 06:08:08;;;;;;;5.10;4.53;;;4.10;99.90;;;;;;4994453;28;20211;-64
2023/01/16 06:10:34;;;;;;;5.03;4.60;;;4.10;99.90;;;;;;5009423;28;20192;-64
2023/01/16 06:13:01;;;;;;;5.10;4.80;;;4.10;99.90;;;;;;5009175;28;20207;-64
2023/01/16 06:15:27;;;;;;;4.97;4.57;;;4.20;99.90;;;;;;4994446;28;20605;-64
2023/01/16 06:17:53;;;;;;;4.40;4.20;;;4.20;99.90;;;;;;4994373;28;20259;-64
2023/01/16 06:20:19;;;;;;;4.90;4.50;;;4.30;99.90;;;;;;4994154;28;20287;-64
2023/01/16 06:22:45;;;;;;;7.57;4.80;;;4.30;99.90;;;;;;4993909;28;20226;-64
2023/01/16 06:25:11;;;;;;;6.73;4.87;;;4.30;99.90;;;;;;4994363;28;20672;-64
2023/01/16 06:27:37;;;;;;;4.70;4.30;;;4.40;99.90;;;;;;4994385;28;20160;-64
2023/01/16 06:30:05;;;;;;;5.20;4.70;;;4.40;99.90;;;;;;4994660;28;20211;-64
2023/01/16 06:32:30;;;;;;;5.10;4.60;;;4.30;99.90;;;;;;4994620;28;20208;-64
2023/01/16 06:34:56;;;;;;;5.37;4.93;;;4.30;99.90;;;;;;4994573;28;20177;-64
2023/01/16 06:37:22;;;;;;;4.80;4.40;;;4.40;99.90;;;;;;4995734;28;20173;-65
2023/01/16 06:39:48;;;;;;;4.97;4.57;;;4.40;99.90;;;;;;5010546;28;20200;-64
2023/01/16 06:42:14;;;;;;;4.90;4.70;;;4.40;99.90;;;;;;4993131;28;20197;-65
2023/01/16 06:44:39;;;;;;;4.90;4.60;;;4.40;99.90;;;;;;4992812;28;20279;-65
2023/01/16 06:47:06;;;;;;;5.20;4.70;;;4.40;99.90;;;;;;4994328;28;20307;-64
2023/01/16 06:49:32;;;;;;;4.70;4.40;;;4.40;99.90;;;;;;4993970;28;20183;-65
2023/01/16 06:52:00;;;;;;;5.47;5.00;;;4.40;99.90;;;;;;4994944;28;20267;-65
2023/01/16 06:54:26;;;;;;;5.10;4.80;;;4.40;99.90;;;;;;4996622;28;20183;-64
2023/01/16 06:56:52;;;;;;;5.77;4.90;;;4.40;99.90;;;;;;4998360;28;20184;-64
2023/01/16 06:59:18;;;;;;;7.87;5.00;;;4.50;99.90;;;;;;4998080;28;20208;-64
2023/01/16 07:01:43;;;;;;;5.40;5.10;;;4.50;99.90;;;;;;4997912;28;20263;-64
2023/01/16 07:04:09;;;;;;;5.20;4.77;;;4.50;99.90;;;;;;5013080;28;20200;-64
2023/01/16 07:06:36;;;;;;;4.97;4.67;;;4.60;99.90;;;;;;5012909;28;20183;-64
2023/01/16 07:09:02;;;;;;;6.87;4.80;;;4.60;99.90;;;;;;4997808;28;20553;-64
2023/01/16 07:11:28;;;;;;;5.80;5.20;;;4.60;99.90;;;;;;4996706;28;20200;-64
2023/01/16 07:22:34;;;;;;;4.97;4.57;;;4.70;99.90;;;;;;4996312;28;20683;-64
2023/01/16 07:24:56;;;;;;;6.23;5.13;;;4.70;99.90;;;;;;4997834;28;20235;-66
2023/01/16 07:27:21;;;;;;;5.37;4.93;;;4.70;99.90;;;;;;4997485;28;20629;-66
2023/01/16 07:29:47;;;;;;;5.50;5.00;;;4.70;99.90;;;;;;5012623;28;20185;-66
2023/01/16 07:32:13;;;;;;;5.20;4.70;;;4.70;99.90;;;;;;4996169;28;20207;-67
2023/01/16 07:34:39;;;;;;;4.80;4.50;;;4.70;99.90;;;;;;4997646;28;20263;-66
2023/01/16 07:37:07;;;;;;;5.07;4.77;;;4.70;99.90;;;;;;4996032;28;20279;-66
2023/01/16 07:39:33;;;;;;;5.53;5.00;;;4.70;99.90;;;;;;4996998;28;20243;-66
2023/01/16 07:42:03;;;;;;;5.20;4.80;;;4.80;99.90;;;;;;4997973;28;20173;-64
2023/01/16 07:44:29;;;;;;;5.47;4.97;;;4.80;99.90;;;;;;4998431;28;20227;-65
2023/01/16 07:46:55;;;;;;;6.37;4.83;;;4.80;99.90;;;;;;4998428;28;20208;-62
2023/01/16 07:49:21;;;;;;;5.33;4.93;;;4.80;99.90;;;;;;4998212;28;20703;-63
2023/01/16 07:51:47;;;;;;;5.13;4.73;;;4.80;99.90;;;;;;5012484;28;20234;-66
2023/01/16 07:54:13;;;;;;;7.63;4.90;;;4.90;99.90;;;;;;4995715;28;20180;-66
2023/01/16 07:56:39;;;;;;;5.40;4.83;;;4.90;99.90;;;;;;4996883;28;20599;-66
2023/01/16 07:59:06;;;;;;;5.20;4.80;;;4.90;99.90;;;;;;4997325;28;20263;-65
2023/01/16 08:01:32;;;;;;;6.57;4.93;;;4.90;99.90;;;;;;4997517;28;20169;-64
2023/01/16 08:03:57;;;;;;;5.30;4.90;;;4.90;99.90;;;;;;4996256;28;20192;-64
2023/01/16 08:06:23;;;;;;;5.30;4.90;;;4.90;99.90;;;;;;4997136;28;20235;-64
2023/01/16 08:08:49;;;;;;;5.47;5.07;;;4.90;99.90;;;;;;4996993;28;20256;-64
2023/01/16 08:13:59;;;;;;;5.53;4.87;;;4.90;99.90;;;;;;4996715;28;20212;-65
2023/01/16 08:16:25;;;;;;;5.20;4.70;;;5.00;99.90;;;;;;4996600;28;20184;-65
2023/01/16 08:18:50;;;;;;;5.30;4.90;;;5.00;99.90;;;;;;4996618;28;20184;-65
2023/01/16 08:21:17;;;;;;;4.90;4.60;;;5.00;99.90;;;;;;4996485;28;20247;-65
2023/01/16 08:23:43;;;;;;;5.03;4.73;;;5.00;99.90;;;;;;4996394;28;20218;-65
2023/01/16 08:26:10;;;;;;;5.30;4.90;;;5.00;99.90;;;;;;4996450;28;20179;-65
2023/01/16 08:28:35;;;;;;;5.20;4.80;;;5.00;99.90;;;;;;4996737;28;20204;-63
2023/01/16 08:31:11;;;;;;;8.00;5.10;;;5.00;99.90;;;;;;4996470;28;20215;-63
2023/01/16 08:33:37;;;;;;;5.33;4.87;;;5.00;99.90;;;;;;5011334;28;20680;-63
2023/01/16 08:36:05;;;;;;;14.17;5.20;;;5.00;99.90;;;;;;4996591;28;20249;-63
2023/01/16 08:38:31;;;;;;;5.40;4.90;;;5.00;99.90;;;;;;4996037;28;20267;-63
2023/01/16 08:40:57;;;;;;;5.70;5.20;;;4.90;99.90;;;;;;4996126;28;20258;-63
2023/01/16 08:51:59;;;;;;;5.30;4.80;;;4.80;99.90;;;;;;4996139;28;20175;-63
2023/01/16 08:54:25;;;;;;;5.57;5.03;;;4.70;99.90;;;;;;4995896;28;20176;-63
2023/01/16 08:56:51;;;;;;;5.37;4.97;;;4.70;99.90;;;;;;4994571;28;20181;-63
2023/01/16 08:59:16;;;;;;;5.50;5.10;;;4.70;99.90;;;;;;4995974;28;20716;-63
2023/01/16 09:01:42;;;;;;;7.60;5.10;;;4.60;99.90;;;;;;4995720;28;20609;-63
2023/01/16 09:04:09;;;;;;;5.23;4.70;;;4.60;99.90;;;;;;4995649;28;20189;-63
2023/01/16 09:06:37;;;;;;;5.20;4.80;;;4.60;99.90;;;;;;4995586;28;20169;-63
2023/01/16 09:09:05;;;;;;;5.10;4.60;;;4.60;99.90;;;;;;4995557;28;20179;-63
2023/01/16 09:14:17;;;;;;;5.00;4.70;;;4.60;99.90;;;;;;4995945;28;20633;-63
2023/01/16 09:16:43;;;;;;;6.53;5.67;;;4.60;99.90;;;;;;4994481;28;20177;-63
2023/01/16 09:19:09;;;;;;;5.43;4.93;;;4.70;99.90;;;;;;5010399;28;20645;-63
2023/01/16 09:21:35;;;;;;;6.13;5.03;;;4.70;99.90;;;;;;4995372;28;20196;-63
2023/01/16 09:24:02;;;;;;;6.87;5.00;;;4.70;99.90;;;;;;4993848;28;20204;-63
2023/01/16 09:26:27;;;;;;;6.10;4.80;;;4.70;99.90;;;;;;5010410;28;20180;-63
2023/01/16 09:28:53;;;;;;;6.30;4.80;;;4.80;99.90;;;;;;4995293;28;20179;-63
2023/01/16 09:31:19;;;;;;;4.97;4.63;;;4.80;99.90;;;;;;4995375;28;20165;-63
2023/01/16 09:33:47;;;;;;;6.87;4.70;;;4.80;99.90;;;;;;4994994;28;20324;-63
2023/01/16 09:36:12;;;;;;;4.87;4.57;;;4.80;99.90;;;;;;4995037;28;20201;-63
2023/01/16 09:38:38;;;;;;;5.80;4.80;;;4.90;99.90;;;;;;4994871;28;20208;-63
2023/01/16 09:41:04;;;;;;;4.80;4.40;;;5.00;99.90;;;;;;4993723;28;20239;-63
2023/01/16 09:43:49;;;;;;;4.83;4.43;;;5.00;99.90;;;;;;4994823;28;20642;-63
2023/01/16 09:46:22;;;;;;;5.27;4.77;;;5.00;99.90;;;;;;4994834;28;20185;-63
2023/01/16 09:48:56;;;;;;;5.50;5.03;;;5.00;99.90;;;;;;4994939;28;20161;-63
2023/01/16 09:51:38;;;;;;;5.00;4.50;;;5.00;99.90;;;;;;4995048;28;20624;-63
2023/01/16 09:59:54;;;;;;;5.07;4.70;;;5.00;99.90;;;;;;4994859;28;20684;-63
2023/01/16 10:02:26;;;;;;;5.37;4.43;;;5.00;99.90;;;;;;4994947;28;20196;-63
2023/01/16 10:04:55;;;;;;;5.20;4.70;;;5.00;99.90;;;;;;4994737;28;20191;-63
2023/01/16 10:07:50;;;;;;;8.53;4.80;;;5.00;99.90;;;;;;4994587;28;20177;-63
2023/01/16 10:10:30;;;;;;;5.20;4.90;;;5.00;99.90;;;;;;5009706;28;20204;-63
2023/01/16 10:13:19;;;;;;;4.97;4.53;;;5.00;99.90;;;;;;4993250;28;20210;-63
2023/01/16 10:15:58;;;;;;;4.90;4.60;;;5.00;99.90;;;;;;4993138;28;20224;-64
2023/01/16 10:18:29;;;;;;;5.07;4.57;;;4.90;99.90;;;;;;4994747;28;20502;-64
2023/01/16 10:21:01;;;;;;;4.80;4.50;;;4.90;99.90;;;;;;4994348;28;20192;-64
2023/01/16 10:23:29;;;;;;;5.07;4.77;;;4.90;99.90;;;;;;4994213;28;20251;-64
2023/01/16 10:26:08;;;;;;;5.00;4.70;;;4.90;99.90;;;;;;4994497;28;20203;-64
2023/01/16 10:28:45;;;;;;;5.10;4.70;;;4.90;99.90;;;;;;4994399;28;20632;-64
2023/01/16 10:31:24;;;;;;;5.87;5.10;;;4.80;99.90;;;;;;4994334;28;20173;-64
2023/01/16 10:33:56;;;;;;;5.90;4.77;;;4.80;99.90;;;;;;4994279;28;20681;-64
2023/01/16 10:36:29;;;;;;;4.93;4.60;;;4.80;99.90;;;;;;4994154;28;20164;-64
2023/01/16 10:38:59;;;;;;;4.77;4.47;;;4.80;99.90;;;;;;4994333;28;20573;-64
2023/01/16 10:50:20;;;;;;;5.17;4.70;;;4.80;99.90;;;;;;4994403;28;20171;-63
2023/01/16 10:52:48;;;;;;;4.50;4.30;;;4.80;99.90;;;;;;4993152;28;20208;-63
2023/01/16 10:55:15;;;;;;;4.73;4.50;;;4.70;99.90;;;;;;4994294;28;20649;-62
2023/01/16 10:58:11;;;;;;;4.90;4.60;;;4.70;99.90;;;;;;4995860;28;20161;-63
2023/01/16 11:00:42;;;;;;;5.13;4.83;;;4.70;99.90;;;;;;5008724;28;20204;-64
2023/01/16 11:03:18;;;;;;;4.60;4.30;;;4.70;99.90;;;;;;4992905;28;20204;-64
2023/01/16 11:05:44;;;;;;;4.97;4.67;;;4.80;99.90;;;;;;4994730;28;20247;-64
2023/01/16 11:08:15;;;;;;;5.00;4.70;;;4.80;99.90;;;;;;5010231;28;20184;-66
2023/01/16 11:10:47;;;;;;;4.60;4.40;;;4.80;99.90;;;;;;5009863;28;20276;-64
2023/01/16 11:19:19;;;;;;;4.67;4.27;;;5.00;99.90;;;;;;4994318;28;20172;-63
2023/01/16 11:21:51;;;;;;;4.63;4.30;;;5.10;99.90;;;;;;4994689;28;20669;-63
2023/01/16 11:24:24;;;;;;;4.33;4.10;;;5.20;99.90;;;;;;4994620;28;20533;-63
2023/01/16 11:26:53;;;;;;;4.53;4.33;;;5.30;99.90;;;;;;4994539;28;20617;-63
2023/01/16 11:29:23;;;;;;;4.77;4.33;;;5.30;99.90;;;;;;4992596;28;20181;-62
2023/01/16 11:32:02;;;;;;;4.50;4.30;;;5.30;99.90;;;;;;4993836;28;20164;-62
2023/01/16 11:34:29;;;;;;;4.60;4.30;;;5.30;99.90;;;;;;4994332;28;20632;-62
2023/01/16 11:36:59;;;;;;;4.80;4.47;;;5.30;99.90;;;;;;4992742;28;20169;-62
2023/01/16 11:39:28;;;;;;;4.33;4.13;;;5.40;99.90;;;;;;4993726;28;20169;-62
2023/01/16 11:41:56;;;;;;;4.70;4.40;;;5.40;99.90;;;;;;4997476;28;20236;-62
2023/01/16 11:47:16;;;;;;;4.93;4.63;;;5.40;99.90;;;;;;4978299;28;20266;-65
2023/01/16 11:49:53;;;;;;;4.20;4.00;;;5.40;99.90;;;;;;5012270;28;20653;-65
2023/01/16 11:52:29;;;;;;;4.67;4.37;;;5.40;99.90;;;;;;4997077;28;20204;-65
2023/01/16 11:55:03;;;;;;;4.53;4.27;;;5.50;99.90;;;;;;4997060;28;20160;-65
2023/01/16 11:58:13;;;;;;;4.13;3.93;;;5.60;99.90;;;;;;4997497;28;20207;-65
2023/01/16 12:00:42;;;;;;;4.40;4.20;;;5.60;99.90;;;;;;4937462;29;20222;-65
2023/01/16 12:03:46;;;;;;;4.33;4.13;;;5.60;99.90;;;;;;4921956;29;20211;-66
2023/01/16 12:06:23;;;;;;;4.40;4.20;;;5.60;99.90;;;;;;4985137;28;20196;-65
2023/01/16 12:09:08;;;;;;;4.50;4.20;;;5.60;99.90;;;;;;5012538;28;20204;-63
2023/01/16 12:11:43;;;;;;;4.47;4.27;;;5.60;99.90;;;;;;4997152;28;20168;-63
2023/01/16 12:14:21;;;;;;;4.50;4.20;;;5.60;99.90;;;;;;4996320;28;20225;-66
2023/01/16 12:16:51;;;;;;;4.40;4.20;;;5.70;99.90;;;;;;4996750;28;20195;-66
2023/01/16 12:19:50;;;;;;;4.57;4.27;;;5.70;99.90;;;;;;4996822;28;20240;-66
2023/01/16 12:22:29;;;;;;;4.57;4.37;;;5.70;99.90;;;;;;4996837;28;20216;-66
2023/01/16 12:25:18;;;;;;;4.50;4.20;;;5.60;99.90;;;;;;4996615;28;20164;-65
2023/01/16 12:28:09;;;;;;;4.60;4.30;;;5.60;99.90;;;;;;4996759;28;20513;-66
2023/01/16 12:30:56;;;;;;;4.50;4.30;;;5.60;99.90;;;;;;4996544;28;20176;-66
2023/01/16 12:33:33;;;;;;;4.50;4.30;;;5.70;99.90;;;;;;4996391;28;20200;-66
2023/01/16 12:36:04;;;;;;;4.57;4.23;;;5.90;99.90;;;;;;4996982;28;20175;-66
2023/01/16 12:39:08;;;;;;;4.67;4.30;;;6.30;99.90;;;;;;4994942;28;20180;-66
2023/01/16 12:44:46;;;;;;;4.40;4.20;;;6.80;99.90;;;;;;4996171;28;20194;-66
2023/01/16 12:47:32;;;;;;;4.30;4.10;;;7.20;99.90;;;;;;4996438;28;20160;-66
2023/01/16 12:50:11;;;;;;;4.27;4.00;;;7.30;99.90;;;;;;5011059;28;20180;-66
2023/01/16 12:52:46;;;;;;;4.20;4.00;;;7.30;99.90;;;;;;4995963;28;20188;-66
2023/01/16 12:55:19;;;;;;;4.10;3.90;;;7.20;99.90;;;;;;4996122;28;20629;-66
2023/01/16 12:58:01;;;;;;;4.50;4.20;;;7.10;99.90;;;;;;4996208;28;20169;-66
2023/01/16 13:00:38;;;;;;;4.43;4.20;;;6.80;99.90;;;;;;4995963;28;20196;-66
2023/01/16 13:03:28;;;;;;;4.57;4.20;;;6.30;99.90;;;;;;5011005;28;20346;-66
2023/01/16 13:05:56;;;;;;;4.60;4.40;;;6.00;99.90;;;;;;4996375;28;20618;-66
2023/01/16 13:08:33;;;;;;;4.67;4.47;;;5.80;99.90;;;;;;4995787;28;20252;-66
2023/01/16 13:13:55;;;;;;;4.17;3.97;;;5.60;99.90;;;;;;4995861;28;20764;-68
2023/01/16 13:16:37;;;;;;;4.43;4.23;;;5.60;99.90;;;;;;4995647;28;20199;-67
2023/01/16 13:19:17;;;;;;;4.40;4.20;;;5.50;99.90;;;;;;4995645;28;20199;-67
2023/01/16 13:22:06;;;;;;;4.30;4.10;;;5.50;99.90;;;;;;4995598;28;20248;-67
2023/01/16 13:24:42;;;;;;;4.40;4.20;;;5.50;99.90;;;;;;4995481;28;20177;-66
2023/01/16 13:27:22;;;;;;;4.80;4.30;;;5.50;99.90;;;;;;4995699;28;20160;-67
2023/01/16 13:30:03;;;;;;;5.10;4.70;;;5.40;99.90;;;;;;4995902;28;20192;-65
2023/01/16 13:32:34;;;;;;;4.70;4.40;;;5.20;99.90;;;;;;5010958;28;20615;-66
2023/01/16 13:35:23;;;;;;;4.77;4.37;;;5.10;99.90;;;;;;4995601;28;20168;-66
2023/01/16 13:38:21;;;;;;;4.50;4.30;;;5.00;99.90;;;;;;4995243;28;20165;-66
2023/01/16 13:41:17;;;;;;;4.77;4.43;;;4.90;99.90;;;;;;4994967;28;20276;-66
2023/01/16 13:46:50;;;;;;;4.57;4.37;;;4.70;99.90;;;;;;4995106;28;20230;-66
2023/01/16 13:49:24;;;;;;;4.70;4.50;;;4.70;99.90;;;;;;5010135;28;20180;-66
2023/01/16 13:51:52;;;;;;;4.90;4.60;;;4.60;99.90;;;;;;4994957;28;20207;-65
2023/01/16 13:54:26;;;;;;;4.87;4.57;;;4.60;99.90;;;;;;5009996;28;20187;-66
2023/01/16 13:57:01;;;;;;;4.50;4.30;;;4.60;99.90;;;;;;4993787;28;20200;-66
2023/01/16 13:59:41;;;;;;;4.93;4.63;;;4.50;99.90;;;;;;4995174;28;20163;-66
2023/01/16 14:02:38;;;;;;;4.47;4.27;;;4.50;99.90;;;;;;4993276;28;20622;-66
2023/01/16 14:05:06;;;;;;;4.70;4.40;;;4.50;99.90;;;;;;4993753;28;20172;-66
2023/01/16 14:11:04;;;;;;;5.07;4.80;;;4.50;99.90;;;;;;4994918;28;20184;-66
2023/01/16 14:13:37;;;;;;;4.83;4.60;;;4.50;99.90;;;;;;4994012;28;20681;-66
2023/01/16 14:16:30;;;;;;;5.17;4.70;;;4.50;99.90;;;;;;5009536;28;20279;-65
2023/01/16 14:18:56;;;;;;;4.70;4.50;;;4.50;99.90;;;;;;4993238;28;20200;-66
2023/01/16 14:21:26;;;;;;;5.07;4.77;;;4.50;99.90;;;;;;4994438;28;20227;-66
2023/01/16 14:24:00;;;;;;;4.90;4.60;;;4.60;99.90;;;;;;4994317;28;20665;-67